• Join FlightAware (Why Join?)
  • Login
  • US Flag 
04:11AM EDT


 

Airport Tracker/Info


-or-


 

Live Flight TrackerFlight Track Log ✈ UAL5829 ✈ 13-Nov-2013 ✈ KRIC - KIAD

Flight Track Log - Related Links

Times and Time Zones

All times are in EST time to prevent confusion due to time zone crossing. See the UAL5829 flight status page for this flight to view local times or setup timezone preferences in your user account.

Time Position Orientation Groundspeed Altitude Reporting Facility
EST Latitude Longitude Course Direction KTS MPH feet Rate Location/Type
08:05PM 37.5828 -77.3475 336° Northwest 172 198 4,600  Level Washington Center
08:06PM 37.6258 -77.3983 317° Northwest 184 212 6,700 2,640 Climbing Washington Center
08:07PM 37.6750 -77.4519 319° Northwest 215 247 10,000 1,620 Climbing Washington Center
08:08PM 37.7303 -77.5192 316° Northwest 246 283 10,000  Level Washington Center
08:09PM 37.7703 -77.6147 298° West 278 320 10,000  Level Washington Center
08:10PM 37.8106 -77.7103 298° West 299 344 10,000  Level Washington Center
08:11PM 37.8675 -77.7856 314° West 311 358 10,000  Level Washington Center
08:12PM 37.9458 -77.7272 30° Northeast 239 275 10,000  Level Washington Center
08:13PM 38.0139 -77.6450 44° Northeast 255 293 10,000  Level Washington Center
08:14PM 38.0819 -77.5675 42° Northeast 296 341 10,000  Level Washington Center
08:15PM 38.1436 -77.4928 44° Northeast 303 349 10,000 -360 Level Washington Center
08:16PM 38.1986 -77.4358 39° Northeast 280 322 9,300 -900 Descending Washington Center
08:17PM 38.2681 -77.3981 23° Northeast 266 306 8,300 -1,020 Descending Washington Center
08:18PM 38.3331 -77.3758 15° North 247 284 7,300 -1,020 Descending Washington Center
08:19PM 38.3994 -77.4039 342° North 233 268 6,300 -1,020 Descending Washington Center
08:20PM 38.4636 -77.4319 341° North 238 274 5,300 -1,020 Descending Washington Center
08:21PM 38.5300 -77.4469 350° North 238 274 4,300 -660 Descending Washington Center
08:22PM 38.5906 -77.4456 North 233 268 4,000 -180 Descending Washington Center
08:23PM 38.6489 -77.4444 North 219 252 4,000 -360 Level Washington Center
08:24PM 38.7167 -77.4333 North 158 182 3,200 -420 Descending Potomac TRACON
08:25PM 38.7667 -77.4333 360° North 156 180 3,000 -180 Descending Potomac TRACON
08:26PM 38.8000 -77.4333 360° North 157 181 2,900 -540 Descending Potomac TRACON
08:27PM 38.8500 -77.4333 360° North 142 163 2,000 -780 Descending Potomac TRACON
08:28PM 38.8833 -77.4333 360° North 116 133 1,400 -720 Descending Potomac TRACON
08:29PM 38.9000 -77.4333 360° North 121 139 700 -780 Descending Potomac TRACON